Time;durP1;ratioP1;P1;durP2;ratioP2;P2;SDS_P1;SDS_P2;PMS_P1;PMS_P2;Temp;Humidity;BMP_temperature;BMP_pressure;BME280_temperature;BME280_humidity;BME280_pressure;Samples;Min_cycle;Max_cycle;Signal;HPM_P1;HPM_P2
2021/11/13 00:01:03;;;;;;;;;30.25;27.50;;;;;;;;5073676;28;50418;-65
2021/11/13 00:03:29;;;;;;;;;38.50;31.50;;;;;;;;5073542;28;49612;-66
2021/11/13 00:05:54;;;;;;;;;32.75;29.50;;;;;;;;5055577;28;49727;-65
2021/11/13 00:08:19;;;;;;;;;34.25;29.00;;;;;;;;5073504;28;49759;-66
2021/11/13 00:10:45;;;;;;;;;27.75;25.50;;;;;;;;5073359;28;49769;-66
2021/11/13 00:13:10;;;;;;;;;28.50;24.00;;;;;;;;5073448;28;49645;-65
2021/11/13 00:15:36;;;;;;;;;30.25;29.25;;;;;;;;5072950;28;61728;-65
2021/11/13 00:18:01;;;;;;;;;26.50;25.25;;;;;;;;5073660;27;49910;-66
2021/11/13 00:20:27;;;;;;;;;24.25;18.50;;;;;;;;5054405;28;50723;-66
2021/11/13 00:22:53;;;;;;;;;25.00;23.25;;;;;;;;5037524;28;50479;-65
2021/11/13 00:25:18;;;;;;;;;24.00;23.75;;;;;;;;5038413;28;50205;-66
2021/11/13 00:27:43;;;;;;;;;26.25;25.00;;;;;;;;5073492;28;49918;-66
2021/11/13 00:30:08;;;;;;;;;38.00;26.25;;;;;;;;5072974;28;50405;-65
2021/11/13 00:32:34;;;;;;;;;29.50;22.00;;;;;;;;5054819;28;49848;-66
2021/11/13 00:34:59;;;;;;;;;23.50;22.00;;;;;;;;5073211;28;49923;-66
2021/11/13 00:37:24;;;;;;;;;27.25;26.00;;;;;;;;5072796;27;53508;-65
2021/11/13 00:39:49;;;;;;;;;23.75;22.75;;;;;;;;5072986;27;49648;-66
2021/11/13 00:42:14;;;;;;;;;20.75;20.50;;;;;;;;5072714;27;55950;-65
2021/11/13 00:44:40;;;;;;;;;19.25;17.50;;;;;;;;5073020;28;49725;-65
2021/11/13 00:47:05;;;;;;;;;24.50;21.00;;;;;;;;5072444;28;50012;-66
2021/11/13 00:49:30;;;;;;;;;22.00;20.25;;;;;;;;5072283;28;49907;-66
2021/11/13 00:51:55;;;;;;;;;21.50;21.25;;;;;;;;5072644;28;49738;-65
2021/11/13 00:54:21;;;;;;;;;24.50;18.75;;;;;;;;5072854;28;49722;-65
2021/11/13 00:56:47;;;;;;;;;19.75;18.75;;;;;;;;5072970;28;49635;-65
2021/11/13 00:59:12;;;;;;;;;20.50;17.00;;;;;;;;5072590;28;51465;-65
2021/11/13 01:01:37;;;;;;;;;18.00;17.75;;;;;;;;5072786;28;49604;-66
2021/11/13 01:04:02;;;;;;;;;12.50;11.50;;;;;;;;5054338;28;49612;-66
2021/11/13 01:06:28;;;;;;;;;18.25;16.50;;;;;;;;5072671;28;49968;-65
2021/11/13 01:08:53;;;;;;;;;19.75;16.50;;;;;;;;5071277;28;63061;-65
2021/11/13 01:11:18;;;;;;;;;18.50;16.75;;;;;;;;5072564;28;49853;-65
2021/11/13 01:13:43;;;;;;;;;15.50;15.50;;;;;;;;5054464;28;49793;-66
2021/11/13 01:16:09;;;;;;;;;19.25;17.75;;;;;;;;5072633;28;49852;-66
2021/11/13 01:18:34;;;;;;;;;20.25;19.00;;;;;;;;5072308;28;50567;-66
2021/11/13 01:20:59;;;;;;;;;16.00;15.50;;;;;;;;5072479;27;49833;-65
2021/11/13 01:23:24;;;;;;;;;19.00;15.25;;;;;;;;5053827;28;49836;-65
2021/11/13 01:25:50;;;;;;;;;15.00;12.75;;;;;;;;5054300;28;49578;-66
2021/11/13 01:28:15;;;;;;;;;17.50;13.75;;;;;;;;5071990;28;49663;-65
2021/11/13 01:30:40;;;;;;;;;18.25;18.00;;;;;;;;5072362;28;49774;-65
2021/11/13 01:33:05;;;;;;;;;15.75;13.75;;;;;;;;5072305;28;49812;-65
2021/11/13 01:35:30;;;;;;;;;16.50;14.25;;;;;;;;5072271;27;49673;-66
2021/11/13 01:37:56;;;;;;;;;20.25;16.00;;;;;;;;5071827;28;49736;-66
2021/11/13 01:40:21;;;;;;;;;15.25;13.00;;;;;;;;5053859;28;49813;-66
2021/11/13 01:42:47;;;;;;;;;18.00;12.25;;;;;;;;5037132;28;49906;-65
2021/11/13 01:45:12;;;;;;;;;20.00;15.00;;;;;;;;5072279;28;49491;-66
2021/11/13 01:47:38;;;;;;;;;15.25;12.75;;;;;;;;5071603;28;50159;-66
2021/11/13 01:50:10;;;;;;;;;17.50;14.50;;;;;;;;5072023;28;49620;-66
2021/11/13 01:52:36;;;;;;;;;17.50;17.50;;;;;;;;5073498;28;49782;-66
2021/11/13 01:55:01;;;;;;;;;15.25;14.50;;;;;;;;5071755;28;49850;-66
2021/11/13 01:57:33;;;;;;;;;13.50;13.50;;;;;;;;5071678;28;50776;-66
2021/11/13 01:59:58;;;;;;;;;18.00;13.50;;;;;;;;5071696;28;49794;-66
2021/11/13 02:02:23;;;;;;;;;12.75;12.75;;;;;;;;5072151;27;50155;-65
2021/11/13 02:04:48;;;;;;;;;13.00;11.25;;;;;;;;5053391;28;50963;-66
2021/11/13 02:07:13;;;;;;;;;17.25;15.75;;;;;;;;5071249;28;52166;-66
2021/11/13 02:09:39;;;;;;;;;12.00;11.25;;;;;;;;5053281;28;49703;-66
2021/11/13 02:12:04;;;;;;;;;12.00;12.00;;;;;;;;5071788;28;49734;-66
2021/11/13 02:14:29;;;;;;;;;11.75;11.75;;;;;;;;5071660;27;49585;-66
2021/11/13 02:16:55;;;;;;;;;10.00;9.50;;;;;;;;5053320;28;49816;-66
2021/11/13 02:19:20;;;;;;;;;13.25;12.75;;;;;;;;5070418;28;49979;-65
2021/11/13 02:21:45;;;;;;;;;14.50;12.75;;;;;;;;5054555;28;50005;-66
2021/11/13 02:24:10;;;;;;;;;11.50;11.50;;;;;;;;5071385;28;49739;-66
2021/11/13 02:26:36;;;;;;;;;15.25;12.75;;;;;;;;5071299;27;49583;-66
2021/11/13 02:29:03;;;;;;;;;17.75;14.25;;;;;;;;5053132;28;49974;-66
2021/11/13 02:31:41;;;;;;;;;12.00;11.50;;;;;;;;5053372;28;50066;-66
2021/11/13 02:34:07;;;;;;;;;13.00;11.00;;;;;;;;5071498;28;49640;-66
2021/11/13 02:36:32;;;;;;;;;12.50;12.50;;;;;;;;5070646;28;49694;-66
2021/11/13 02:38:58;;;;;;;;;13.50;10.00;;;;;;;;5071248;28;49677;-66
2021/11/13 02:41:26;;;;;;;;;16.50;10.50;;;;;;;;5053230;28;49762;-66
2021/11/13 02:43:51;;;;;;;;;11.00;10.00;;;;;;;;5071286;28;49541;-66
2021/11/13 02:46:17;;;;;;;;;13.75;11.50;;;;;;;;5052653;28;59058;-66
2021/11/13 02:48:42;;;;;;;;;12.50;9.75;;;;;;;;5052783;28;49851;-66
2021/11/13 02:51:08;;;;;;;;;13.75;10.75;;;;;;;;5070903;28;49716;-66
2021/11/13 02:53:33;;;;;;;;;12.00;10.75;;;;;;;;5071416;28;49610;-66
2021/11/13 02:55:59;;;;;;;;;11.25;10.75;;;;;;;;5070781;27;49711;-66
2021/11/13 02:58:25;;;;;;;;;11.00;9.75;;;;;;;;5052823;28;49648;-66
2021/11/13 03:00:51;;;;;;;;;9.00;6.00;;;;;;;;5070872;28;49639;-66
2021/11/13 03:03:17;;;;;;;;;9.25;8.75;;;;;;;;5071209;28;49796;-66
2021/11/13 03:05:46;;;;;;;;;11.50;11.50;;;;;;;;5052691;28;49963;-65
2021/11/13 03:08:12;;;;;;;;;12.25;10.00;;;;;;;;5070485;28;49740;-66
2021/11/13 03:10:37;;;;;;;;;11.25;10.00;;;;;;;;5070802;28;49715;-66
2021/11/13 03:13:02;;;;;;;;;11.00;9.75;;;;;;;;5070796;28;49976;-65
2021/11/13 03:15:28;;;;;;;;;10.75;10.25;;;;;;;;5052558;28;50690;-66
2021/11/13 03:17:53;;;;;;;;;8.50;7.75;;;;;;;;5070886;27;49653;-66
2021/11/13 03:20:19;;;;;;;;;10.25;8.25;;;;;;;;5070710;28;49633;-66
2021/11/13 03:22:45;;;;;;;;;12.50;10.25;;;;;;;;5035711;28;49868;-66
2021/11/13 03:25:11;;;;;;;;;10.75;7.50;;;;;;;;5070269;28;50541;-66
2021/11/13 03:27:37;;;;;;;;;8.50;5.75;;;;;;;;5070567;28;49652;-66
2021/11/13 03:30:03;;;;;;;;;11.00;7.50;;;;;;;;5070456;28;49550;-66
2021/11/13 03:32:28;;;;;;;;;9.25;9.25;;;;;;;;5073693;28;49703;-66
2021/11/13 03:34:53;;;;;;;;;10.50;10.25;;;;;;;;5074008;28;49719;-67
2021/11/13 03:37:18;;;;;;;;;6.50;6.50;;;;;;;;5055669;28;50245;-66
2021/11/13 03:39:43;;;;;;;;;5.75;4.00;;;;;;;;5073862;27;56302;-66
2021/11/13 03:42:09;;;;;;;;;10.25;8.50;;;;;;;;5074214;28;50042;-66
2021/11/13 03:44:34;;;;;;;;;13.00;11.00;;;;;;;;5073756;28;49649;-66
2021/11/13 03:46:59;;;;;;;;;10.75;8.75;;;;;;;;5073821;28;49591;-66
2021/11/13 03:49:24;;;;;;;;;9.50;6.75;;;;;;;;5073512;28;57970;-66
2021/11/13 03:51:50;;;;;;;;;16.50;10.25;;;;;;;;5073920;28;49766;-66
2021/11/13 03:54:15;;;;;;;;;8.50;6.50;;;;;;;;5073773;27;49681;-65
2021/11/13 03:56:40;;;;;;;;;5.00;5.00;;;;;;;;5073923;28;49993;-65
2021/11/13 03:59:06;;;;;;;;;5.00;3.75;;;;;;;;5073764;28;49593;-65
2021/11/13 04:01:34;;;;;;;;;6.75;5.00;;;;;;;;5074033;28;49641;-65
2021/11/13 04:03:59;;;;;;;;;5.00;4.00;;;;;;;;5055501;28;49836;-66
2021/11/13 04:06:25;;;;;;;;;9.00;7.75;;;;;;;;5073402;28;49845;-65
2021/11/13 04:08:50;;;;;;;;;8.25;7.50;;;;;;;;5055781;28;50200;-65
2021/11/13 04:11:15;;;;;;;;;6.00;5.75;;;;;;;;5073755;28;49562;-65
2021/11/13 04:13:41;;;;;;;;;5.50;5.50;;;;;;;;5073314;28;50547;-65
2021/11/13 04:16:06;;;;;;;;;4.75;4.75;;;;;;;;5073211;28;57187;-65
2021/11/13 04:18:32;;;;;;;;;7.25;5.50;;;;;;;;5073505;28;49790;-66
2021/11/13 04:20:57;;;;;;;;;8.25;7.00;;;;;;;;5073558;28;49687;-65
2021/11/13 04:23:22;;;;;;;;;3.25;3.00;;;;;;;;5072954;27;51752;-65
2021/11/13 04:25:47;;;;;;;;;8.75;4.25;;;;;;;;5073410;27;50247;-65
2021/11/13 04:28:13;;;;;;;;;6.25;5.00;;;;;;;;5073402;28;49695;-66
2021/11/13 04:30:38;;;;;;;;;5.50;4.50;;;;;;;;5073429;28;49703;-65
2021/11/13 04:33:03;;;;;;;;;4.25;4.25;;;;;;;;5073254;28;50177;-65
2021/11/13 04:37:54;;;;;;;;;6.50;5.00;;;;;;;;5073385;28;49693;-65
2021/11/13 04:40:20;;;;;;;;;5.75;3.75;;;;;;;;5073345;28;49634;-65
2021/11/13 04:42:45;;;;;;;;;6.00;3.00;;;;;;;;5071998;28;50384;-65
2021/11/13 04:45:10;;;;;;;;;10.00;4.50;;;;;;;;5073186;27;49704;-65
2021/11/13 04:47:36;;;;;;;;;5.00;4.00;;;;;;;;5073237;28;49541;-65
2021/11/13 04:50:02;;;;;;;;;4.75;4.00;;;;;;;;5054944;28;49776;-65
2021/11/13 04:52:27;;;;;;;;;5.25;4.00;;;;;;;;5072580;27;50363;-65
2021/11/13 04:54:52;;;;;;;;;8.75;5.25;;;;;;;;5072347;28;49739;-65
2021/11/13 04:57:17;;;;;;;;;6.50;3.25;;;;;;;;5073119;28;49743;-65
2021/11/13 04:59:43;;;;;;;;;3.25;3.00;;;;;;;;5073025;28;49537;-65
2021/11/13 05:02:08;;;;;;;;;3.00;3.00;;;;;;;;5072628;28;50313;-65
2021/11/13 05:04:33;;;;;;;;;4.25;3.25;;;;;;;;5054493;28;49748;-65
2021/11/13 05:06:58;;;;;;;;;4.75;4.00;;;;;;;;5072717;28;50097;-65
2021/11/13 05:09:23;;;;;;;;;6.25;3.75;;;;;;;;5072836;28;49680;-66
2021/11/13 05:11:49;;;;;;;;;4.25;2.75;;;;;;;;5072172;27;59165;-65
2021/11/13 05:14:14;;;;;;;;;2.50;0.00;;;;;;;;5072347;28;54197;-65
2021/11/13 05:16:39;;;;;;;;;5.00;4.00;;;;;;;;5072676;28;49755;-65
2021/11/13 05:19:04;;;;;;;;;3.75;3.50;;;;;;;;5072532;28;49537;-65
2021/11/13 05:21:29;;;;;;;;;3.00;2.00;;;;;;;;5071621;28;50780;-65
2021/11/13 05:23:55;;;;;;;;;3.50;2.75;;;;;;;;5072003;28;49928;-66
2021/11/13 05:26:20;;;;;;;;;3.50;3.50;;;;;;;;5072690;28;49718;-66
2021/11/13 05:28:45;;;;;;;;;4.00;3.25;;;;;;;;5072130;28;53751;-66
2021/11/13 05:31:12;;;;;;;;;4.50;4.00;;;;;;;;5070979;27;49715;-65
2021/11/13 05:33:37;;;;;;;;;3.00;3.00;;;;;;;;5037214;28;49715;-66
2021/11/13 05:36:02;;;;;;;;;2.00;1.75;;;;;;;;5071872;28;49808;-65
2021/11/13 05:38:28;;;;;;;;;3.00;2.00;;;;;;;;5054275;28;49808;-65
2021/11/13 05:40:53;;;;;;;;;4.00;4.00;;;;;;;;5072115;27;50632;-65
2021/11/13 05:43:18;;;;;;;;;3.75;3.75;;;;;;;;5053896;28;49831;-65
2021/11/13 05:45:44;;;;;;;;;3.50;3.50;;;;;;;;5072271;27;49660;-65
2021/11/13 05:48:09;;;;;;;;;4.75;4.00;;;;;;;;5054154;28;49848;-65
2021/11/13 05:50:35;;;;;;;;;5.75;5.00;;;;;;;;5053491;28;49843;-65
2021/11/13 05:53:00;;;;;;;;;3.75;2.25;;;;;;;;5056980;28;49870;-65
2021/11/13 05:55:25;;;;;;;;;2.75;2.75;;;;;;;;5071791;27;49589;-65
2021/11/13 05:57:51;;;;;;;;;3.00;3.00;;;;;;;;5062076;28;50039;-65
2021/11/13 06:00:17;;;;;;;;;3.25;3.00;;;;;;;;5071112;27;50479;-66
2021/11/13 06:02:42;;;;;;;;;3.00;2.75;;;;;;;;5053500;28;49663;-65
2021/11/13 06:05:07;;;;;;;;;3.75;3.75;;;;;;;;5071871;28;49947;-66
2021/11/13 06:07:33;;;;;;;;;2.00;2.00;;;;;;;;5071636;28;49648;-65
2021/11/13 06:09:58;;;;;;;;;2.00;2.00;;;;;;;;5071654;28;49734;-65
2021/11/13 06:12:23;;;;;;;;;2.50;2.00;;;;;;;;5071675;28;49990;-65
2021/11/13 06:14:48;;;;;;;;;2.50;2.50;;;;;;;;5070583;27;51002;-65
2021/11/13 06:17:15;;;;;;;;;2.00;2.00;;;;;;;;5071464;27;49685;-65
2021/11/13 06:19:40;;;;;;;;;1.75;1.75;;;;;;;;5071498;27;50606;-65
2021/11/13 06:22:05;;;;;;;;;1.00;1.00;;;;;;;;5070916;27;49655;-65
2021/11/13 06:24:31;;;;;;;;;5.50;2.50;;;;;;;;5071113;27;50080;-64
2021/11/13 06:26:56;;;;;;;;;4.00;3.25;;;;;;;;5071261;27;49572;-64
2021/11/13 06:29:21;;;;;;;;;3.25;2.00;;;;;;;;5070867;27;57789;-64
2021/11/13 06:31:46;;;;;;;;;2.00;2.00;;;;;;;;5070797;28;55784;-64
2021/11/13 06:34:12;;;;;;;;;2.75;2.75;;;;;;;;5071139;28;49787;-64
2021/11/13 06:36:37;;;;;;;;;2.50;2.00;;;;;;;;5070937;28;50954;-64
2021/11/13 06:39:03;;;;;;;;;1.75;1.75;;;;;;;;5052821;27;49791;-65
2021/11/13 06:41:30;;;;;;;;;2.00;2.00;;;;;;;;5071541;28;49825;-64
2021/11/13 06:43:55;;;;;;;;;3.75;2.00;;;;;;;;5070879;28;49810;-65
2021/11/13 06:46:21;;;;;;;;;4.00;1.75;;;;;;;;5070897;27;49877;-64
2021/11/13 06:48:46;;;;;;;;;0.75;0.75;;;;;;;;5071005;28;50616;-64
2021/11/13 06:51:11;;;;;;;;;1.75;1.75;;;;;;;;5070586;28;49779;-64
2021/11/13 06:53:36;;;;;;;;;1.00;1.00;;;;;;;;5070685;28;51159;-64
2021/11/13 06:56:02;;;;;;;;;3.00;1.75;;;;;;;;5071278;28;49755;-64
2021/11/13 06:58:27;;;;;;;;;0.75;0.75;;;;;;;;5070606;28;49817;-64
2021/11/13 07:00:52;;;;;;;;;3.25;2.00;;;;;;;;5071017;28;51704;-64
2021/11/13 07:03:17;;;;;;;;;2.00;1.25;;;;;;;;5070660;28;52427;-63
2021/11/13 07:05:42;;;;;;;;;2.25;2.25;;;;;;;;5071679;28;49713;-64
2021/11/13 07:08:07;;;;;;;;;3.00;2.00;;;;;;;;5056064;28;49832;-64
2021/11/13 07:10:33;;;;;;;;;2.00;1.00;;;;;;;;5056280;28;52212;-63
2021/11/13 07:12:58;;;;;;;;;4.00;3.00;;;;;;;;5074042;28;49631;-62
2021/11/13 07:15:25;;;;;;;;;1.50;1.50;;;;;;;;5074475;28;49826;-64
2021/11/13 07:17:51;;;;;;;;;0.00;0.00;;;;;;;;5074263;27;49682;-64
2021/11/13 07:20:17;;;;;;;;;2.00;2.00;;;;;;;;5073787;27;49676;-64
2021/11/13 07:22:42;;;;;;;;;0.00;0.00;;;;;;;;5074616;27;49743;-65
2021/11/13 07:25:13;;;;;;;;;3.50;3.50;;;;;;;;5073987;27;49716;-65
2021/11/13 07:27:38;;;;;;;;;2.00;1.00;;;;;;;;5073011;28;50684;-65
2021/11/13 07:30:04;;;;;;;;;2.00;2.00;;;;;;;;5073354;27;49815;-65
2021/11/13 07:32:29;;;;;;;;;1.00;1.00;;;;;;;;5056419;28;49871;-65
2021/11/13 07:34:54;;;;;;;;;2.25;1.00;;;;;;;;5073441;28;49942;-65
2021/11/13 07:37:21;;;;;;;;;1.50;1.00;;;;;;;;5073377;27;50340;-65
2021/11/13 07:39:46;;;;;;;;;1.00;1.00;;;;;;;;5073095;28;49819;-65
2021/11/13 07:42:11;;;;;;;;;1.00;1.00;;;;;;;;5055960;28;49892;-65
2021/11/13 07:44:36;;;;;;;;;3.00;2.00;;;;;;;;5072920;28;49993;-65
2021/11/13 07:47:01;;;;;;;;;2.75;1.50;;;;;;;;5073817;27;50565;-65
2021/11/13 07:49:27;;;;;;;;;3.00;2.00;;;;;;;;5073815;28;49981;-65
2021/11/13 07:51:52;;;;;;;;;0.25;0.25;;;;;;;;5073740;27;49770;-66
2021/11/13 07:54:18;;;;;;;;;0.25;0.25;;;;;;;;5073509;28;49825;-65
2021/11/13 07:56:43;;;;;;;;;0.75;0.75;;;;;;;;5073746;27;49722;-65
2021/11/13 07:59:08;;;;;;;;;1.00;1.00;;;;;;;;5073146;28;49627;-65
2021/11/13 08:01:33;;;;;;;;;1.00;1.00;;;;;;;;5072520;27;49763;-64
2021/11/13 08:03:59;;;;;;;;;2.00;2.00;;;;;;;;5072523;28;49718;-65
2021/11/13 08:06:25;;;;;;;;;2.00;2.00;;;;;;;;5073351;28;49818;-65
2021/11/13 08:08:50;;;;;;;;;5.00;3.00;;;;;;;;5072815;28;49771;-67
2021/11/13 08:11:15;;;;;;;;;2.00;2.00;;;;;;;;5074168;28;49822;-64
2021/11/13 08:13:42;;;;;;;;;3.00;2.00;;;;;;;;5055278;28;49910;-65
2021/11/13 08:16:07;;;;;;;;;3.00;3.00;;;;;;;;5073254;27;50825;-68
2021/11/13 08:18:33;;;;;;;;;2.00;2.00;;;;;;;;5054902;28;49777;-67
2021/11/13 08:20:59;;;;;;;;;2.25;2.00;;;;;;;;5054863;28;49836;-68
2021/11/13 08:23:25;;;;;;;;;3.00;3.00;;;;;;;;5055726;28;49874;-65
2021/11/13 08:25:52;;;;;;;;;1.00;1.00;;;;;;;;5073135;28;49726;-67
2021/11/13 08:28:18;;;;;;;;;2.25;2.00;;;;;;;;5072901;28;49641;-67
2021/11/13 08:30:44;;;;;;;;;2.75;2.25;;;;;;;;5072780;28;49787;-67
2021/11/13 08:33:09;;;;;;;;;3.75;2.50;;;;;;;;5072781;27;54266;-67
2021/11/13 08:35:35;;;;;;;;;3.50;2.50;;;;;;;;5071439;28;49668;-67
2021/11/13 08:38:00;;;;;;;;;2.00;2.00;;;;;;;;5073035;27;49780;-63
2021/11/13 08:40:25;;;;;;;;;3.00;2.00;;;;;;;;5073307;27;49785;-67
2021/11/13 08:42:50;;;;;;;;;3.50;3.00;;;;;;;;5072278;27;49970;-69
2021/11/13 08:45:16;;;;;;;;;5.25;2.00;;;;;;;;5072704;27;50048;-68
2021/11/13 08:47:41;;;;;;;;;2.25;2.25;;;;;;;;5077191;28;49807;-68
2021/11/13 08:50:07;;;;;;;;;3.50;3.50;;;;;;;;5053077;28;49981;-68
2021/11/13 08:52:33;;;;;;;;;3.50;2.00;;;;;;;;5071140;28;49600;-68
2021/11/13 08:54:59;;;;;;;;;2.50;2.25;;;;;;;;5065961;28;51220;-68
2021/11/13 08:57:24;;;;;;;;;3.00;3.00;;;;;;;;5072495;27;49655;-67
2021/11/13 08:59:49;;;;;;;;;5.00;3.00;;;;;;;;5071649;28;49950;-67
2021/11/13 09:02:16;;;;;;;;;2.25;2.00;;;;;;;;5073029;27;49690;-67
2021/11/13 09:04:41;;;;;;;;;3.00;2.25;;;;;;;;5070611;28;50034;-67
2021/11/13 09:07:07;;;;;;;;;2.00;2.00;;;;;;;;5070604;28;49891;-67
2021/11/13 09:09:35;;;;;;;;;1.50;1.50;;;;;;;;5070345;27;49850;-67
2021/11/13 09:12:03;;;;;;;;;3.00;3.00;;;;;;;;5053096;28;49871;-67
2021/11/13 09:14:28;;;;;;;;;3.25;1.50;;;;;;;;5068630;28;49828;-67
2021/11/13 09:16:53;;;;;;;;;3.00;3.00;;;;;;;;5070236;28;50220;-67
2021/11/13 09:19:18;;;;;;;;;2.50;2.50;;;;;;;;5035662;28;61891;-67
2021/11/13 09:21:43;;;;;;;;;2.25;2.00;;;;;;;;5070875;28;49759;-67
2021/11/13 09:24:09;;;;;;;;;3.00;3.00;;;;;;;;5070068;28;50627;-67
2021/11/13 09:26:34;;;;;;;;;2.00;2.00;;;;;;;;5064618;28;49586;-67
2021/11/13 09:29:00;;;;;;;;;2.50;2.00;;;;;;;;5071451;27;49801;-67
2021/11/13 09:31:25;;;;;;;;;4.25;3.25;;;;;;;;5072360;27;49584;-67
2021/11/13 09:33:50;;;;;;;;;3.00;2.75;;;;;;;;5071462;28;51281;-67
2021/11/13 09:36:15;;;;;;;;;2.00;2.00;;;;;;;;5071220;28;57616;-67
2021/11/13 09:38:43;;;;;;;;;4.00;3.75;;;;;;;;5054037;28;49561;-67
2021/11/13 09:41:08;;;;;;;;;2.50;2.00;;;;;;;;5055007;28;49851;-67
2021/11/13 09:43:34;;;;;;;;;4.00;4.00;;;;;;;;5070619;27;52474;-67
2021/11/13 09:45:59;;;;;;;;;3.50;3.50;;;;;;;;5071223;28;49782;-68
2021/11/13 09:48:25;;;;;;;;;6.00;3.75;;;;;;;;5067673;27;49778;-67
2021/11/13 09:50:50;;;;;;;;;3.25;3.00;;;;;;;;5050068;28;49804;-67
2021/11/13 09:53:17;;;;;;;;;3.25;3.25;;;;;;;;5054649;28;50887;-67
2021/11/13 09:55:42;;;;;;;;;4.75;3.50;;;;;;;;5059662;27;49840;-67
2021/11/13 09:58:07;;;;;;;;;4.00;3.25;;;;;;;;5045451;27;49793;-67
2021/11/13 10:00:35;;;;;;;;;5.25;5.00;;;;;;;;5084949;27;50088;-67
2021/11/13 10:03:01;;;;;;;;;6.25;4.75;;;;;;;;5067927;28;49955;-67
2021/11/13 10:05:26;;;;;;;;;6.25;4.00;;;;;;;;5069306;28;49832;-67
2021/11/13 10:07:51;;;;;;;;;12.00;7.75;;;;;;;;5064674;28;49668;-67
2021/11/13 10:10:36;;;;;;;;;2.50;2.50;;;;;;;;5061448;28;49577;-67
2021/11/13 10:13:02;;;;;;;;;5.00;5.00;;;;;;;;5051007;28;49855;-66
2021/11/13 10:15:34;;;;;;;;;4.00;4.00;;;;;;;;5058716;27;49724;-67
2021/11/13 10:18:06;;;;;;;;;4.75;3.50;;;;;;;;5084962;27;49875;-66
2021/11/13 10:20:32;;;;;;;;;4.00;3.00;;;;;;;;5091468;27;49619;-66
2021/11/13 10:22:57;;;;;;;;;4.50;4.50;;;;;;;;5073644;27;50300;-67
2021/11/13 10:25:22;;;;;;;;;6.00;6.00;;;;;;;;5057112;28;49640;-65
2021/11/13 10:28:06;;;;;;;;;4.00;4.00;;;;;;;;5050813;28;49783;-66
2021/11/13 10:30:31;;;;;;;;;10.00;7.00;;;;;;;;5050990;28;49838;-67
2021/11/13 10:32:57;;;;;;;;;3.75;3.00;;;;;;;;5045498;27;53095;-67
2021/11/13 10:35:37;;;;;;;;;6.50;6.00;;;;;;;;5077434;27;50410;-67
2021/11/13 10:38:13;;;;;;;;;5.75;5.75;;;;;;;;5062805;27;49780;-68
2021/11/13 10:40:47;;;;;;;;;5.50;5.00;;;;;;;;5066654;27;49738;-68
2021/11/13 10:43:12;;;;;;;;;6.25;6.25;;;;;;;;5043769;27;49877;-66
2021/11/13 10:45:37;;;;;;;;;7.50;5.75;;;;;;;;5076685;27;49778;-66
2021/11/13 10:48:02;;;;;;;;;7.50;7.50;;;;;;;;5055492;27;52271;-66
2021/11/13 10:50:28;;;;;;;;;7.50;7.50;;;;;;;;5051052;28;49799;-67
2021/11/13 10:53:02;;;;;;;;;8.00;8.00;;;;;;;;5074455;27;50530;-66
2021/11/13 10:55:27;;;;;;;;;8.50;8.25;;;;;;;;5081334;27;50640;-66
2021/11/13 10:57:52;;;;;;;;;8.25;8.25;;;;;;;;5073732;27;49744;-67
2021/11/13 11:00:17;;;;;;;;;9.25;8.50;;;;;;;;5059141;28;49844;-67
2021/11/13 11:03:02;;;;;;;;;2.00;2.00;;;;;;;;5060149;28;50056;-66
2021/11/13 11:05:28;;;;;;;;;7.75;6.00;;;;;;;;5050270;28;49802;-68
2021/11/13 11:07:53;;;;;;;;;8.50;7.50;;;;;;;;5014982;28;49788;-67
2021/11/13 11:10:21;;;;;;;;;8.75;7.75;;;;;;;;5049950;28;49643;-67
2021/11/13 11:12:46;;;;;;;;;7.50;6.00;;;;;;;;5050475;28;50431;-68
2021/11/13 11:15:12;;;;;;;;;7.50;7.50;;;;;;;;5052366;28;49708;-68
2021/11/13 11:17:37;;;;;;;;;7.50;6.00;;;;;;;;5062544;28;49704;-73
2021/11/13 11:20:23;;;;;;;;;7.25;5.75;;;;;;;;5062081;28;49792;-67
2021/11/13 11:22:48;;;;;;;;;8.25;5.75;;;;;;;;5049317;28;49635;-67
2021/11/13 11:25:14;;;;;;;;;4.00;4.00;;;;;;;;5060281;28;49721;-67
2021/11/13 11:27:40;;;;;;;;;5.75;5.00;;;;;;;;5051188;28;49743;-65
2021/11/13 11:30:06;;;;;;;;;5.25;4.50;;;;;;;;5032273;28;49878;-66
2021/11/13 11:32:40;;;;;;;;;3.00;3.00;;;;;;;;5050005;28;51560;-66
2021/11/13 11:35:09;;;;;;;;;5.00;5.00;;;;;;;;5050269;28;49743;-66
2021/11/13 11:37:39;;;;;;;;;6.00;6.00;;;;;;;;5049891;28;49820;-66
2021/11/13 11:40:11;;;;;;;;;7.25;5.75;;;;;;;;5054172;28;49857;-67
2021/11/13 11:42:37;;;;;;;;;5.75;5.00;;;;;;;;5038694;28;52497;-67
2021/11/13 11:45:02;;;;;;;;;5.00;5.00;;;;;;;;5049930;28;49933;-67
2021/11/13 11:47:28;;;;;;;;;6.25;5.00;;;;;;;;5050187;28;49593;-67
2021/11/13 11:49:57;;;;;;;;;3.50;3.50;;;;;;;;5050283;28;49745;-67
2021/11/13 11:52:23;;;;;;;;;3.25;3.25;;;;;;;;5051164;28;50477;-67
2021/11/13 11:54:49;;;;;;;;;5.00;4.00;;;;;;;;5053404;28;49742;-68
2021/11/13 11:57:14;;;;;;;;;4.00;3.00;;;;;;;;5053348;28;49793;-67
2021/11/13 11:59:40;;;;;;;;;4.00;4.00;;;;;;;;5053717;28;49753;-67
2021/11/13 12:02:09;;;;;;;;;4.00;3.00;;;;;;;;5053272;28;50391;-66
2021/11/13 12:04:34;;;;;;;;;4.00;4.00;;;;;;;;5053535;28;49654;-67
2021/11/13 12:07:00;;;;;;;;;4.00;4.00;;;;;;;;5035362;28;50005;-66
2021/11/13 12:09:25;;;;;;;;;22.50;20.25;;;;;;;;5052870;28;49601;-65
2021/11/13 12:12:09;;;;;;;;;6.00;6.00;;;;;;;;5053254;28;50268;-65
2021/11/13 12:14:37;;;;;;;;;13.75;10.50;;;;;;;;5053178;28;49584;-69
2021/11/13 12:17:21;;;;;;;;;10.50;8.50;;;;;;;;5053238;28;49787;-65
2021/11/13 12:20:05;;;;;;;;;7.75;7.00;;;;;;;;5053368;28;49800;-64
2021/11/13 12:22:34;;;;;;;;;24.00;19.75;;;;;;;;5052695;28;49752;-65
2021/11/13 12:25:37;;;;;;;;;4.50;4.50;;;;;;;;5052941;28;49811;-64
2021/11/13 12:28:16;;;;;;;;;11.00;11.00;;;;;;;;5010187;28;50059;-64
2021/11/13 12:30:42;;;;;;;;;7.50;7.50;;;;;;;;4993824;28;49713;-67
2021/11/13 12:33:26;;;;;;;;;11.00;8.50;;;;;;;;5033257;28;52616;-64
2021/11/13 12:35:51;;;;;;;;;8.75;7.00;;;;;;;;5052503;28;49617;-60
2021/11/13 12:38:35;;;;;;;;;6.50;6.25;;;;;;;;5052901;28;49896;-62
2021/11/13 12:41:17;;;;;;;;;4.75;4.75;;;;;;;;5034988;28;49999;-61
2021/11/13 12:43:52;;;;;;;;;8.50;8.50;;;;;;;;5052651;28;50405;-60
2021/11/13 12:46:30;;;;;;;;;8.50;7.00;;;;;;;;5052637;28;49796;-60
2021/11/13 12:49:14;;;;;;;;;7.25;5.00;;;;;;;;5034547;28;49812;-62
2021/11/13 12:51:42;;;;;;;;;6.50;4.25;;;;;;;;5052875;28;50110;-64
2021/11/13 12:54:14;;;;;;;;;13.00;13.00;;;;;;;;5052190;28;49616;-65
2021/11/13 12:56:46;;;;;;;;;38.00;27.50;;;;;;;;5034391;28;49818;-66
2021/11/13 12:59:15;;;;;;;;;20.75;17.50;;;;;;;;5052433;28;49847;-70
2021/11/13 13:01:50;;;;;;;;;11.50;11.25;;;;;;;;5052616;28;49732;-70
2021/11/13 13:04:15;;;;;;;;;37.25;32.00;;;;;;;;5051496;28;50457;-64
2021/11/13 13:06:46;;;;;;;;;16.00;15.25;;;;;;;;5052258;28;49739;-63
2021/11/13 13:09:12;;;;;;;;;12.25;10.75;;;;;;;;5034286;28;49693;-61
2021/11/13 13:11:50;;;;;;;;;6.50;4.50;;;;;;;;5052429;28;50104;-63
2021/11/13 13:14:19;;;;;;;;;11.75;7.75;;;;;;;;5034419;28;50910;-68
2021/11/13 13:16:45;;;;;;;;;6.00;4.75;;;;;;;;5034506;28;50001;-68
2021/11/13 13:19:10;;;;;;;;;5.25;5.00;;;;;;;;5052625;28;50137;-68
2021/11/13 13:21:35;;;;;;;;;5.50;4.50;;;;;;;;5052036;28;49538;-68
2021/11/13 13:24:10;;;;;;;;;5.00;5.00;;;;;;;;5051678;28;50366;-68
2021/11/13 13:26:36;;;;;;;;;4.00;4.00;;;;;;;;5051732;28;49819;-67
2021/11/13 13:29:08;;;;;;;;;5.25;4.25;;;;;;;;5051924;28;49966;-67
2021/11/13 13:31:34;;;;;;;;;5.00;3.75;;;;;;;;5052126;28;49860;-66
2021/11/13 13:33:59;;;;;;;;;3.00;3.00;;;;;;;;5051725;28;49764;-65
2021/11/13 13:36:27;;;;;;;;;5.00;5.00;;;;;;;;5051708;28;49745;-65
2021/11/13 13:38:53;;;;;;;;;6.75;5.25;;;;;;;;5034396;28;49982;-64
2021/11/13 13:41:18;;;;;;;;;6.00;3.00;;;;;;;;5052026;28;49807;-63
2021/11/13 13:43:44;;;;;;;;;2.25;2.25;;;;;;;;5051736;28;50813;-62
2021/11/13 13:46:16;;;;;;;;;6.75;3.50;;;;;;;;5051858;28;49785;-63
2021/11/13 13:48:41;;;;;;;;;3.50;3.50;;;;;;;;5051681;28;49876;-67
2021/11/13 13:51:08;;;;;;;;;5.00;4.25;;;;;;;;5051519;28;49614;-67
2021/11/13 13:54:03;;;;;;;;;5.75;2.50;;;;;;;;5051429;28;49754;-66
2021/11/13 13:56:34;;;;;;;;;3.00;3.00;;;;;;;;5042191;28;49948;-66
2021/11/13 13:59:00;;;;;;;;;5.50;5.50;;;;;;;;5037006;28;49619;-65
2021/11/13 14:01:26;;;;;;;;;9.25;8.50;;;;;;;;5051394;28;49750;-66
2021/11/13 14:03:51;;;;;;;;;4.00;4.00;;;;;;;;5016482;28;52040;-63
2021/11/13 14:06:16;;;;;;;;;4.25;4.25;;;;;;;;5050930;28;49795;-61
2021/11/13 14:08:47;;;;;;;;;4.25;4.00;;;;;;;;5051211;28;49657;-60
2021/11/13 14:11:13;;;;;;;;;6.25;6.00;;;;;;;;5051427;28;49972;-61
2021/11/13 14:13:38;;;;;;;;;6.50;6.50;;;;;;;;5050861;28;53609;-60
2021/11/13 14:16:04;;;;;;;;;0.25;0.25;;;;;;;;5050907;28;49748;-60
2021/11/13 14:18:30;;;;;;;;;4.50;3.50;;;;;;;;5051287;28;49662;-61
2021/11/13 14:20:55;;;;;;;;;3.75;3.75;;;;;;;;5032880;28;49579;-60
2021/11/13 14:23:22;;;;;;;;;9.25;8.00;;;;;;;;5050638;28;50808;-62
2021/11/13 14:25:48;;;;;;;;;4.00;4.00;;;;;;;;5051676;28;49872;-62
2021/11/13 14:28:28;;;;;;;;;3.50;3.25;;;;;;;;5050975;28;49725;-62
2021/11/13 14:30:54;;;;;;;;;3.00;3.00;;;;;;;;5051017;28;49702;-62
2021/11/13 14:33:19;;;;;;;;;6.75;5.75;;;;;;;;5051074;28;50017;-66
2021/11/13 14:35:44;;;;;;;;;3.00;3.00;;;;;;;;5050769;28;49851;-61